sensor_id;sensor_type;location;lat;lon;timestamp;P1;durP1;ratioP1;P2;durP2;ratioP2
59006;SDS011;44792;52.760;6.726;2022-11-20T00:01:17;29.27;;;15.43;;
59006;SDS011;44792;52.760;6.726;2022-11-20T00:03:44;31.50;;;14.65;;
59006;SDS011;44792;52.760;6.726;2022-11-20T00:06:11;36.05;;;16.27;;
59006;SDS011;44792;52.760;6.726;2022-11-20T00:08:39;35.17;;;15.75;;
59006;SDS011;44792;52.760;6.726;2022-11-20T00:11:05;31.45;;;15.55;;
59006;SDS011;44792;52.760;6.726;2022-11-20T00:13:35;29.60;;;14.40;;
59006;SDS011;44792;52.760;6.726;2022-11-20T00:16:01;30.85;;;14.38;;
59006;SDS011;44792;52.760;6.726;2022-11-20T00:18:28;34.10;;;15.93;;
59006;SDS011;44792;52.760;6.726;2022-11-20T00:21:04;28.90;;;13.25;;
59006;SDS011;44792;52.760;6.726;2022-11-20T00:26:04;20.73;;;11.05;;
59006;SDS011;44792;52.760;6.726;2022-11-20T00:28:30;21.10;;;11.10;;
59006;SDS011;44792;52.760;6.726;2022-11-20T00:31:03;21.55;;;11.30;;
59006;SDS011;44792;52.760;6.726;2022-11-20T00:33:30;25.77;;;11.13;;
59006;SDS011;44792;52.760;6.726;2022-11-20T00:36:02;22.27;;;12.07;;
59006;SDS011;44792;52.760;6.726;2022-11-20T00:38:32;29.95;;;13.82;;
59006;SDS011;44792;52.760;6.726;2022-11-20T00:40:59;27.77;;;12.50;;
59006;SDS011;44792;52.760;6.726;2022-11-20T00:43:26;26.50;;;11.82;;
59006;SDS011;44792;52.760;6.726;2022-11-20T00:45:58;19.70;;;11.13;;
59006;SDS011;44792;52.760;6.726;2022-11-20T00:48:25;21.52;;;10.20;;
59006;SDS011;44792;52.760;6.726;2022-11-20T00:50:51;24.33;;;12.05;;
59006;SDS011;44792;52.760;6.726;2022-11-20T00:53:18;20.35;;;12.02;;
59006;SDS011;44792;52.760;6.726;2022-11-20T00:55:51;36.10;;;12.95;;
59006;SDS011;44792;52.760;6.726;2022-11-20T00:58:18;29.90;;;12.25;;
59006;SDS011;44792;52.760;6.726;2022-11-20T01:00:43;25.90;;;13.05;;
59006;SDS011;44792;52.760;6.726;2022-11-20T01:03:09;29.17;;;13.52;;
59006;SDS011;44792;52.760;6.726;2022-11-20T01:05:35;35.55;;;13.27;;
59006;SDS011;44792;52.760;6.726;2022-11-20T01:08:01;31.23;;;14.38;;
59006;SDS011;44792;52.760;6.726;2022-11-20T01:10:26;27.40;;;12.43;;
59006;SDS011;44792;52.760;6.726;2022-11-20T01:12:52;30.00;;;12.80;;
59006;SDS011;44792;52.760;6.726;2022-11-20T01:15:37;24.40;;;11.60;;
59006;SDS011;44792;52.760;6.726;2022-11-20T01:18:03;25.90;;;12.15;;
59006;SDS011;44792;52.760;6.726;2022-11-20T01:20:28;22.92;;;12.65;;
59006;SDS011;44792;52.760;6.726;2022-11-20T01:22:54;23.45;;;11.73;;
59006;SDS011;44792;52.760;6.726;2022-11-20T01:25:20;23.83;;;12.15;;
59006;SDS011;44792;52.760;6.726;2022-11-20T01:27:45;25.52;;;12.10;;
59006;SDS011;44792;52.760;6.726;2022-11-20T01:30:11;25.23;;;12.43;;
59006;SDS011;44792;52.760;6.726;2022-11-20T01:32:37;22.38;;;11.57;;
59006;SDS011;44792;52.760;6.726;2022-11-20T01:35:02;19.88;;;11.10;;
59006;SDS011;44792;52.760;6.726;2022-11-20T01:37:28;23.58;;;11.18;;
59006;SDS011;44792;52.760;6.726;2022-11-20T01:39:54;17.85;;;10.27;;
59006;SDS011;44792;52.760;6.726;2022-11-20T01:42:19;21.90;;;12.02;;
59006;SDS011;44792;52.760;6.726;2022-11-20T01:45:42;21.42;;;11.13;;
59006;SDS011;44792;52.760;6.726;2022-11-20T01:48:07;42.17;;;20.08;;
59006;SDS011;44792;52.760;6.726;2022-11-20T01:50:33;30.10;;;14.85;;
59006;SDS011;44792;52.760;6.726;2022-11-20T01:53:00;26.15;;;13.07;;
59006;SDS011;44792;52.760;6.726;2022-11-20T01:55:30;30.60;;;13.52;;
59006;SDS011;44792;52.760;6.726;2022-11-20T01:57:58;22.02;;;11.68;;
59006;SDS011;44792;52.760;6.726;2022-11-20T02:00:25;24.92;;;12.73;;
59006;SDS011;44792;52.760;6.726;2022-11-20T02:02:52;21.30;;;11.20;;
59006;SDS011;44792;52.760;6.726;2022-11-20T02:05:23;23.05;;;11.35;;
59006;SDS011;44792;52.760;6.726;2022-11-20T02:10:22;15.98;;;9.02;;
59006;SDS011;44792;52.760;6.726;2022-11-20T02:12:48;20.92;;;10.52;;
59006;SDS011;44792;52.760;6.726;2022-11-20T02:15:32;21.17;;;10.85;;
59006;SDS011;44792;52.760;6.726;2022-11-20T02:17:58;32.08;;;11.88;;
59006;SDS011;44792;52.760;6.726;2022-11-20T02:20:24;31.73;;;12.80;;
59006;SDS011;44792;52.760;6.726;2022-11-20T02:22:57;34.30;;;11.68;;
59006;SDS011;44792;52.760;6.726;2022-11-20T02:25:30;18.65;;;10.25;;
59006;SDS011;44792;52.760;6.726;2022-11-20T02:27:58;20.75;;;10.32;;
59006;SDS011;44792;52.760;6.726;2022-11-20T02:30:24;17.88;;;9.70;;
59006;SDS011;44792;52.760;6.726;2022-11-20T02:32:49;19.13;;;10.27;;
59006;SDS011;44792;52.760;6.726;2022-11-20T02:37:43;47.30;;;14.38;;
59006;SDS011;44792;52.760;6.726;2022-11-20T02:40:11;23.60;;;10.63;;
59006;SDS011;44792;52.760;6.726;2022-11-20T02:42:37;20.80;;;8.88;;
59006;SDS011;44792;52.760;6.726;2022-11-20T02:45:03;21.65;;;11.13;;
59006;SDS011;44792;52.760;6.726;2022-11-20T02:47:29;40.63;;;15.73;;
59006;SDS011;44792;52.760;6.726;2022-11-20T02:49:55;43.63;;;13.40;;
59006;SDS011;44792;52.760;6.726;2022-11-20T02:52:21;31.25;;;12.27;;
59006;SDS011;44792;52.760;6.726;2022-11-20T02:54:46;28.58;;;12.00;;
59006;SDS011;44792;52.760;6.726;2022-11-20T02:57:12;21.67;;;10.35;;
59006;SDS011;44792;52.760;6.726;2022-11-20T02:59:38;20.83;;;11.35;;
59006;SDS011;44792;52.760;6.726;2022-11-20T03:02:03;18.30;;;10.68;;
59006;SDS011;44792;52.760;6.726;2022-11-20T03:04:29;22.63;;;9.80;;
59006;SDS011;44792;52.760;6.726;2022-11-20T03:06:55;20.92;;;10.75;;
59006;SDS011;44792;52.760;6.726;2022-11-20T03:09:21;27.00;;;11.20;;
59006;SDS011;44792;52.760;6.726;2022-11-20T03:11:46;22.67;;;11.25;;
59006;SDS011;44792;52.760;6.726;2022-11-20T03:14:12;22.50;;;10.85;;
59006;SDS011;44792;52.760;6.726;2022-11-20T03:16:39;19.48;;;10.52;;
59006;SDS011;44792;52.760;6.726;2022-11-20T03:19:04;23.67;;;10.80;;
59006;SDS011;44792;52.760;6.726;2022-11-20T03:21:30;22.75;;;10.48;;
59006;SDS011;44792;52.760;6.726;2022-11-20T03:23:58;16.77;;;9.85;;
59006;SDS011;44792;52.760;6.726;2022-11-20T03:26:24;19.33;;;9.90;;
59006;SDS011;44792;52.760;6.726;2022-11-20T03:28:52;16.48;;;10.02;;
59006;SDS011;44792;52.760;6.726;2022-11-20T03:31:21;19.48;;;10.52;;
59006;SDS011;44792;52.760;6.726;2022-11-20T03:33:47;23.95;;;10.00;;
59006;SDS011;44792;52.760;6.726;2022-11-20T03:36:14;20.58;;;11.35;;
59006;SDS011;44792;52.760;6.726;2022-11-20T03:38:40;18.60;;;9.88;;
59006;SDS011;44792;52.760;6.726;2022-11-20T03:41:10;20.55;;;9.38;;
59006;SDS011;44792;52.760;6.726;2022-11-20T03:43:37;19.45;;;10.15;;
59006;SDS011;44792;52.760;6.726;2022-11-20T03:46:03;17.25;;;9.13;;
59006;SDS011;44792;52.760;6.726;2022-11-20T03:48:29;20.15;;;10.50;;
59006;SDS011;44792;52.760;6.726;2022-11-20T03:51:08;22.25;;;10.15;;
59006;SDS011;44792;52.760;6.726;2022-11-20T03:53:39;17.55;;;10.00;;
59006;SDS011;44792;52.760;6.726;2022-11-20T03:56:06;24.38;;;11.18;;
59006;SDS011;44792;52.760;6.726;2022-11-20T03:58:33;17.63;;;8.30;;
59006;SDS011;44792;52.760;6.726;2022-11-20T04:01:05;14.35;;;8.88;;
59006;SDS011;44792;52.760;6.726;2022-11-20T04:03:32;19.75;;;10.05;;
59006;SDS011;44792;52.760;6.726;2022-11-20T04:06:01;16.63;;;8.77;;
59006;SDS011;44792;52.760;6.726;2022-11-20T04:08:28;22.20;;;10.20;;
59006;SDS011;44792;52.760;6.726;2022-11-20T04:10:54;17.08;;;9.93;;
59006;SDS011;44792;52.760;6.726;2022-11-20T04:13:20;17.25;;;9.75;;
59006;SDS011;44792;52.760;6.726;2022-11-20T04:15:45;19.77;;;10.43;;
59006;SDS011;44792;52.760;6.726;2022-11-20T04:18:11;20.73;;;10.35;;
59006;SDS011;44792;52.760;6.726;2022-11-20T04:20:36;19.75;;;11.20;;
59006;SDS011;44792;52.760;6.726;2022-11-20T04:23:02;20.83;;;10.20;;
59006;SDS011;44792;52.760;6.726;2022-11-20T04:25:27;19.60;;;10.10;;
59006;SDS011;44792;52.760;6.726;2022-11-20T04:27:53;18.35;;;10.77;;
59006;SDS011;44792;52.760;6.726;2022-11-20T04:30:19;18.02;;;9.25;;
59006;SDS011;44792;52.760;6.726;2022-11-20T04:32:45;18.73;;;9.60;;
59006;SDS011;44792;52.760;6.726;2022-11-20T04:35:10;19.27;;;10.50;;
59006;SDS011;44792;52.760;6.726;2022-11-20T04:37:36;20.33;;;9.68;;
59006;SDS011;44792;52.760;6.726;2022-11-20T04:40:01;16.92;;;9.82;;
59006;SDS011;44792;52.760;6.726;2022-11-20T04:42:27;17.75;;;9.90;;
59006;SDS011;44792;52.760;6.726;2022-11-20T04:44:55;21.58;;;10.13;;
59006;SDS011;44792;52.760;6.726;2022-11-20T04:47:21;18.80;;;10.15;;
59006;SDS011;44792;52.760;6.726;2022-11-20T04:49:47;19.75;;;9.95;;
59006;SDS011;44792;52.760;6.726;2022-11-20T04:52:13;17.90;;;9.77;;
59006;SDS011;44792;52.760;6.726;2022-11-20T04:54:38;16.35;;;9.25;;
59006;SDS011;44792;52.760;6.726;2022-11-20T04:57:04;17.42;;;9.65;;
59006;SDS011;44792;52.760;6.726;2022-11-20T04:59:29;18.25;;;10.10;;
59006;SDS011;44792;52.760;6.726;2022-11-20T05:01:55;20.85;;;11.07;;
59006;SDS011;44792;52.760;6.726;2022-11-20T05:04:21;15.82;;;9.13;;
59006;SDS011;44792;52.760;6.726;2022-11-20T05:06:46;18.48;;;9.80;;
59006;SDS011;44792;52.760;6.726;2022-11-20T05:09:12;15.57;;;8.75;;
59006;SDS011;44792;52.760;6.726;2022-11-20T05:11:38;19.08;;;8.93;;
59006;SDS011;44792;52.760;6.726;2022-11-20T05:14:03;16.98;;;10.40;;
59006;SDS011;44792;52.760;6.726;2022-11-20T05:16:29;15.77;;;9.95;;
59006;SDS011;44792;52.760;6.726;2022-11-20T05:18:54;14.82;;;9.32;;
59006;SDS011;44792;52.760;6.726;2022-11-20T05:21:20;22.02;;;9.95;;
59006;SDS011;44792;52.760;6.726;2022-11-20T05:23:46;17.33;;;8.70;;
59006;SDS011;44792;52.760;6.726;2022-11-20T05:26:13;15.93;;;9.15;;
59006;SDS011;44792;52.760;6.726;2022-11-20T05:28:41;18.55;;;10.30;;
59006;SDS011;44792;52.760;6.726;2022-11-20T05:31:07;18.10;;;9.80;;
59006;SDS011;44792;52.760;6.726;2022-11-20T05:33:35;17.92;;;8.65;;
59006;SDS011;44792;52.760;6.726;2022-11-20T05:36:01;18.15;;;9.90;;
59006;SDS011;44792;52.760;6.726;2022-11-20T05:38:28;14.88;;;8.43;;
59006;SDS011;44792;52.760;6.726;2022-11-20T05:40:53;17.17;;;9.15;;
59006;SDS011;44792;52.760;6.726;2022-11-20T05:43:19;18.80;;;9.05;;
59006;SDS011;44792;52.760;6.726;2022-11-20T05:45:54;19.52;;;9.65;;
59006;SDS011;44792;52.760;6.726;2022-11-20T05:48:19;18.10;;;9.68;;
59006;SDS011;44792;52.760;6.726;2022-11-20T05:50:46;17.08;;;9.88;;
59006;SDS011;44792;52.760;6.726;2022-11-20T05:53:12;14.73;;;8.65;;
59006;SDS011;44792;52.760;6.726;2022-11-20T05:55:38;17.00;;;9.05;;
59006;SDS011;44792;52.760;6.726;2022-11-20T05:58:03;18.17;;;9.57;;
59006;SDS011;44792;52.760;6.726;2022-11-20T06:00:29;15.82;;;8.90;;
59006;SDS011;44792;52.760;6.726;2022-11-20T06:02:54;15.02;;;8.88;;
59006;SDS011;44792;52.760;6.726;2022-11-20T06:05:20;19.73;;;10.10;;
59006;SDS011;44792;52.760;6.726;2022-11-20T06:07:45;17.85;;;8.88;;
59006;SDS011;44792;52.760;6.726;2022-11-20T06:10:11;17.70;;;9.70;;
59006;SDS011;44792;52.760;6.726;2022-11-20T06:12:36;19.52;;;8.90;;
59006;SDS011;44792;52.760;6.726;2022-11-20T06:15:03;15.90;;;8.35;;
59006;SDS011;44792;52.760;6.726;2022-11-20T06:17:29;21.05;;;9.25;;
59006;SDS011;44792;52.760;6.726;2022-11-20T06:19:54;15.98;;;8.52;;
59006;SDS011;44792;52.760;6.726;2022-11-20T06:22:20;18.33;;;9.30;;
59006;SDS011;44792;52.760;6.726;2022-11-20T06:24:45;17.42;;;8.88;;
59006;SDS011;44792;52.760;6.726;2022-11-20T06:27:11;16.88;;;9.23;;
59006;SDS011;44792;52.760;6.726;2022-11-20T06:29:36;14.98;;;7.75;;
59006;SDS011;44792;52.760;6.726;2022-11-20T06:32:02;17.48;;;9.20;;
59006;SDS011;44792;52.760;6.726;2022-11-20T06:34:28;15.82;;;8.40;;
59006;SDS011;44792;52.760;6.726;2022-11-20T06:36:53;16.30;;;8.43;;
59006;SDS011;44792;52.760;6.726;2022-11-20T06:39:19;17.92;;;8.73;;
59006;SDS011;44792;52.760;6.726;2022-11-20T06:41:44;18.60;;;8.82;;
59006;SDS011;44792;52.760;6.726;2022-11-20T06:44:10;13.95;;;7.72;;
59006;SDS011;44792;52.760;6.726;2022-11-20T06:46:35;15.02;;;8.27;;
59006;SDS011;44792;52.760;6.726;2022-11-20T06:49:01;17.23;;;9.07;;
59006;SDS011;44792;52.760;6.726;2022-11-20T06:51:26;17.00;;;8.52;;
59006;SDS011;44792;52.760;6.726;2022-11-20T06:53:52;17.27;;;8.95;;
59006;SDS011;44792;52.760;6.726;2022-11-20T06:56:18;14.57;;;8.32;;
59006;SDS011;44792;52.760;6.726;2022-11-20T06:58:43;16.48;;;9.23;;
59006;SDS011;44792;52.760;6.726;2022-11-20T07:01:10;18.33;;;8.90;;
59006;SDS011;44792;52.760;6.726;2022-11-20T07:03:37;16.10;;;9.13;;
59006;SDS011;44792;52.760;6.726;2022-11-20T07:06:03;16.73;;;8.98;;
59006;SDS011;44792;52.760;6.726;2022-11-20T07:08:29;15.15;;;9.02;;
59006;SDS011;44792;52.760;6.726;2022-11-20T07:10:58;20.08;;;8.95;;
59006;SDS011;44792;52.760;6.726;2022-11-20T07:13:29;16.80;;;8.68;;
59006;SDS011;44792;52.760;6.726;2022-11-20T07:15:55;17.58;;;8.82;;
59006;SDS011;44792;52.760;6.726;2022-11-20T07:18:23;17.02;;;8.77;;
59006;SDS011;44792;52.760;6.726;2022-11-20T07:20:49;16.05;;;9.27;;
59006;SDS011;44792;52.760;6.726;2022-11-20T07:23:14;15.73;;;8.52;;
59006;SDS011;44792;52.760;6.726;2022-11-20T07:25:40;16.63;;;8.90;;
59006;SDS011;44792;52.760;6.726;2022-11-20T07:28:05;15.25;;;8.35;;
59006;SDS011;44792;52.760;6.726;2022-11-20T07:30:31;16.17;;;8.80;;
59006;SDS011;44792;52.760;6.726;2022-11-20T07:32:56;14.77;;;8.68;;
59006;SDS011;44792;52.760;6.726;2022-11-20T07:35:23;15.93;;;8.48;;
59006;SDS011;44792;52.760;6.726;2022-11-20T07:37:49;20.02;;;9.70;;
59006;SDS011;44792;52.760;6.726;2022-11-20T07:40:15;16.55;;;9.05;;
59006;SDS011;44792;52.760;6.726;2022-11-20T07:42:51;15.85;;;9.20;;
59006;SDS011;44792;52.760;6.726;2022-11-20T07:45:18;17.05;;;9.00;;
59006;SDS011;44792;52.760;6.726;2022-11-20T07:47:44;15.30;;;8.55;;
59006;SDS011;44792;52.760;6.726;2022-11-20T07:50:10;17.40;;;10.13;;
59006;SDS011;44792;52.760;6.726;2022-11-20T07:52:36;17.20;;;9.52;;
59006;SDS011;44792;52.760;6.726;2022-11-20T07:55:01;18.60;;;9.85;;
59006;SDS011;44792;52.760;6.726;2022-11-20T07:57:27;26.13;;;12.30;;
59006;SDS011;44792;52.760;6.726;2022-11-20T07:59:52;21.17;;;10.90;;
59006;SDS011;44792;52.760;6.726;2022-11-20T08:02:19;15.40;;;9.85;;
59006;SDS011;44792;52.760;6.726;2022-11-20T08:04:44;17.83;;;10.02;;
59006;SDS011;44792;52.760;6.726;2022-11-20T08:07:10;18.88;;;10.63;;
59006;SDS011;44792;52.760;6.726;2022-11-20T08:09:35;19.48;;;9.85;;
59006;SDS011;44792;52.760;6.726;2022-11-20T08:12:01;18.67;;;10.90;;
59006;SDS011;44792;52.760;6.726;2022-11-20T08:14:45;19.10;;;9.95;;
59006;SDS011;44792;52.760;6.726;2022-11-20T08:17:11;17.27;;;10.15;;
59006;SDS011;44792;52.760;6.726;2022-11-20T08:19:37;17.00;;;10.30;;
59006;SDS011;44792;52.760;6.726;2022-11-20T08:22:02;19.80;;;10.80;;
59006;SDS011;44792;52.760;6.726;2022-11-20T08:24:28;23.48;;;11.50;;
59006;SDS011;44792;52.760;6.726;2022-11-20T08:26:53;23.08;;;11.65;;
59006;SDS011;44792;52.760;6.726;2022-11-20T08:29:21;28.15;;;11.68;;
59006;SDS011;44792;52.760;6.726;2022-11-20T08:31:47;22.80;;;11.07;;
59006;SDS011;44792;52.760;6.726;2022-11-20T08:34:13;26.05;;;11.73;;
59006;SDS011;44792;52.760;6.726;2022-11-20T08:36:38;21.80;;;10.57;;
59006;SDS011;44792;52.760;6.726;2022-11-20T08:39:04;21.52;;;10.63;;
59006;SDS011;44792;52.760;6.726;2022-11-20T08:41:29;18.58;;;10.00;;
59006;SDS011;44792;52.760;6.726;2022-11-20T08:44:04;20.50;;;10.52;;
59006;SDS011;44792;52.760;6.726;2022-11-20T08:46:41;17.65;;;10.25;;
59006;SDS011;44792;52.760;6.726;2022-11-20T08:49:09;20.60;;;10.70;;
59006;SDS011;44792;52.760;6.726;2022-11-20T08:51:36;20.15;;;10.88;;
59006;SDS011;44792;52.760;6.726;2022-11-20T08:54:02;18.65;;;10.40;;
59006;SDS011;44792;52.760;6.726;2022-11-20T08:56:29;17.02;;;9.88;;
59006;SDS011;44792;52.760;6.726;2022-11-20T08:58:55;20.13;;;10.63;;
59006;SDS011;44792;52.760;6.726;2022-11-20T09:01:21;20.73;;;9.65;;
59006;SDS011;44792;52.760;6.726;2022-11-20T09:03:48;15.98;;;9.27;;
59006;SDS011;44792;52.760;6.726;2022-11-20T09:06:14;16.80;;;9.75;;
59006;SDS011;44792;52.760;6.726;2022-11-20T09:08:40;19.23;;;9.73;;
59006;SDS011;44792;52.760;6.726;2022-11-20T09:11:06;17.92;;;10.18;;
59006;SDS011;44792;52.760;6.726;2022-11-20T09:13:32;18.60;;;10.13;;
59006;SDS011;44792;52.760;6.726;2022-11-20T09:16:00;19.35;;;10.07;;
59006;SDS011;44792;52.760;6.726;2022-11-20T09:18:27;16.35;;;9.25;;
59006;SDS011;44792;52.760;6.726;2022-11-20T09:20:57;20.30;;;10.50;;
59006;SDS011;44792;52.760;6.726;2022-11-20T09:23:23;22.23;;;9.82;;
59006;SDS011;44792;52.760;6.726;2022-11-20T09:25:50;21.02;;;10.18;;
59006;SDS011;44792;52.760;6.726;2022-11-20T09:28:15;20.77;;;10.25;;
59006;SDS011;44792;52.760;6.726;2022-11-20T09:30:43;21.90;;;10.32;;
59006;SDS011;44792;52.760;6.726;2022-11-20T09:33:09;20.02;;;10.57;;
59006;SDS011;44792;52.760;6.726;2022-11-20T09:35:35;18.13;;;10.32;;
59006;SDS011;44792;52.760;6.726;2022-11-20T09:38:04;17.83;;;9.88;;
59006;SDS011;44792;52.760;6.726;2022-11-20T09:40:30;18.75;;;10.32;;
59006;SDS011;44792;52.760;6.726;2022-11-20T09:42:57;16.83;;;9.70;;
59006;SDS011;44792;52.760;6.726;2022-11-20T09:45:41;20.40;;;10.45;;
59006;SDS011;44792;52.760;6.726;2022-11-20T09:48:18;20.85;;;10.25;;
59006;SDS011;44792;52.760;6.726;2022-11-20T09:50:49;18.08;;;9.30;;
59006;SDS011;44792;52.760;6.726;2022-11-20T09:56:55;21.40;;;10.32;;
59006;SDS011;44792;52.760;6.726;2022-11-20T09:59:34;24.23;;;11.70;;
59006;SDS011;44792;52.760;6.726;2022-11-20T10:02:12;18.25;;;9.48;;
59006;SDS011;44792;52.760;6.726;2022-11-20T10:05:06;18.15;;;9.25;;
59006;SDS011;44792;52.760;6.726;2022-11-20T10:07:42;18.23;;;9.82;;
59006;SDS011;44792;52.760;6.726;2022-11-20T10:10:31;16.48;;;8.90;;
59006;SDS011;44792;52.760;6.726;2022-11-20T10:18:30;15.07;;;8.90;;
59006;SDS011;44792;52.760;6.726;2022-11-20T10:23:57;14.85;;;9.15;;
59006;SDS011;44792;52.760;6.726;2022-11-20T10:29:42;15.20;;;7.70;;
59006;SDS011;44792;52.760;6.726;2022-11-20T10:32:16;12.02;;;7.65;;
59006;SDS011;44792;52.760;6.726;2022-11-20T10:37:25;15.32;;;7.97;;
59006;SDS011;44792;52.760;6.726;2022-11-20T10:40:05;12.75;;;7.00;;
59006;SDS011;44792;52.760;6.726;2022-11-20T10:42:44;11.90;;;6.78;;
59006;SDS011;44792;52.760;6.726;2022-11-20T10:48:07;12.70;;;7.43;;
59006;SDS011;44792;52.760;6.726;2022-11-20T10:50:37;13.23;;;8.02;;
59006;SDS011;44792;52.760;6.726;2022-11-20T10:56:19;13.65;;;7.63;;
59006;SDS011;44792;52.760;6.726;2022-11-20T11:01:39;10.82;;;6.07;;
59006;SDS011;44792;52.760;6.726;2022-11-20T11:04:07;13.20;;;7.03;;
59006;SDS011;44792;52.760;6.726;2022-11-20T11:06:54;12.25;;;6.82;;
59006;SDS011;44792;52.760;6.726;2022-11-20T11:09:53;13.35;;;6.90;;
59006;SDS011;44792;52.760;6.726;2022-11-20T11:12:20;16.58;;;7.32;;
59006;SDS011;44792;52.760;6.726;2022-11-20T11:14:49;10.63;;;6.18;;
59006;SDS011;44792;52.760;6.726;2022-11-20T11:17:18;11.75;;;6.50;;
59006;SDS011;44792;52.760;6.726;2022-11-20T11:20:03;12.10;;;6.82;;
59006;SDS011;44792;52.760;6.726;2022-11-20T11:22:32;9.98;;;6.63;;
59006;SDS011;44792;52.760;6.726;2022-11-20T11:24:59;12.45;;;6.85;;
59006;SDS011;44792;52.760;6.726;2022-11-20T11:27:25;15.30;;;6.93;;
59006;SDS011;44792;52.760;6.726;2022-11-20T11:29:51;14.85;;;6.97;;
59006;SDS011;44792;52.760;6.726;2022-11-20T11:32:39;9.75;;;5.90;;
59006;SDS011;44792;52.760;6.726;2022-11-20T11:35:06;12.90;;;7.53;;
59006;SDS011;44792;52.760;6.726;2022-11-20T11:37:43;13.80;;;6.82;;
59006;SDS011;44792;52.760;6.726;2022-11-20T11:40:12;13.95;;;7.00;;
59006;SDS011;44792;52.760;6.726;2022-11-20T11:42:47;14.52;;;7.68;;
59006;SDS011;44792;52.760;6.726;2022-11-20T11:45:17;11.63;;;6.97;;
59006;SDS011;44792;52.760;6.726;2022-11-20T11:50:14;14.20;;;7.38;;
59006;SDS011;44792;52.760;6.726;2022-11-20T11:55:36;13.23;;;7.65;;
59006;SDS011;44792;52.760;6.726;2022-11-20T12:01:32;14.10;;;6.85;;
59006;SDS011;44792;52.760;6.726;2022-11-20T12:09:52;12.55;;;6.90;;
59006;SDS011;44792;52.760;6.726;2022-11-20T12:12:24;11.88;;;5.60;;
59006;SDS011;44792;52.760;6.726;2022-11-20T12:14:55;11.80;;;6.72;;
59006;SDS011;44792;52.760;6.726;2022-11-20T12:17:23;12.90;;;7.57;;
59006;SDS011;44792;52.760;6.726;2022-11-20T12:19:49;14.55;;;6.55;;
59006;SDS011;44792;52.760;6.726;2022-11-20T12:22:49;14.82;;;7.60;;
59006;SDS011;44792;52.760;6.726;2022-11-20T12:25:24;10.68;;;6.82;;
59006;SDS011;44792;52.760;6.726;2022-11-20T12:30:49;11.45;;;6.40;;
59006;SDS011;44792;52.760;6.726;2022-11-20T12:36:05;14.55;;;7.68;;
59006;SDS011;44792;52.760;6.726;2022-11-20T12:39:18;15.10;;;7.28;;
59006;SDS011;44792;52.760;6.726;2022-11-20T12:47:52;11.25;;;6.50;;
59006;SDS011;44792;52.760;6.726;2022-11-20T12:51:03;11.93;;;7.20;;
59006;SDS011;44792;52.760;6.726;2022-11-20T13:01:58;12.27;;;7.70;;
59006;SDS011;44792;52.760;6.726;2022-11-20T13:07:24;14.20;;;7.40;;
59006;SDS011;44792;52.760;6.726;2022-11-20T13:09:52;15.23;;;7.72;;
59006;SDS011;44792;52.760;6.726;2022-11-20T13:12:22;12.82;;;7.78;;
59006;SDS011;44792;52.760;6.726;2022-11-20T13:14:55;13.38;;;8.13;;
59006;SDS011;44792;52.760;6.726;2022-11-20T13:20:13;15.55;;;8.45;;
59006;SDS011;44792;52.760;6.726;2022-11-20T13:22:42;15.95;;;8.57;;
59006;SDS011;44792;52.760;6.726;2022-11-20T13:25:21;12.82;;;7.70;;
59006;SDS011;44792;52.760;6.726;2022-11-20T13:27:52;15.57;;;8.20;;
59006;SDS011;44792;52.760;6.726;2022-11-20T13:30:20;14.68;;;7.97;;
59006;SDS011;44792;52.760;6.726;2022-11-20T13:32:58;15.80;;;8.23;;
59006;SDS011;44792;52.760;6.726;2022-11-20T13:35:33;13.02;;;7.30;;
59006;SDS011;44792;52.760;6.726;2022-11-20T13:40:31;16.85;;;8.18;;
59006;SDS011;44792;52.760;6.726;2022-11-20T13:43:07;12.25;;;7.45;;
59006;SDS011;44792;52.760;6.726;2022-11-20T13:46:04;15.18;;;7.72;;
59006;SDS011;44792;52.760;6.726;2022-11-20T13:48:32;12.43;;;7.32;;
59006;SDS011;44792;52.760;6.726;2022-11-20T13:56:47;16.10;;;8.18;;
59006;SDS011;44792;52.760;6.726;2022-11-20T13:59:25;14.35;;;9.20;;
59006;SDS011;44792;52.760;6.726;2022-11-20T14:01:53;12.85;;;8.05;;
59006;SDS011;44792;52.760;6.726;2022-11-20T14:04:26;13.20;;;8.15;;
59006;SDS011;44792;52.760;6.726;2022-11-20T14:06:57;15.68;;;8.38;;
59006;SDS011;44792;52.760;6.726;2022-11-20T14:11:52;14.48;;;8.35;;
59006;SDS011;44792;52.760;6.726;2022-11-20T14:14:19;15.82;;;9.05;;
59006;SDS011;44792;52.760;6.726;2022-11-20T14:16:47;16.80;;;9.35;;
59006;SDS011;44792;52.760;6.726;2022-11-20T14:21:49;25.00;;;12.02;;
59006;SDS011;44792;52.760;6.726;2022-11-20T14:24:31;43.25;;;15.60;;
59006;SDS011;44792;52.760;6.726;2022-11-20T14:26:56;36.17;;;14.30;;
59006;SDS011;44792;52.760;6.726;2022-11-20T14:29:23;19.80;;;10.68;;
59006;SDS011;44792;52.760;6.726;2022-11-20T14:31:54;16.88;;;9.68;;
59006;SDS011;44792;52.760;6.726;2022-11-20T14:34:22;18.80;;;10.80;;
59006;SDS011;44792;52.760;6.726;2022-11-20T14:36:51;17.27;;;10.38;;
59006;SDS011;44792;52.760;6.726;2022-11-20T14:39:21;18.98;;;10.13;;
59006;SDS011;44792;52.760;6.726;2022-11-20T14:41:52;16.08;;;10.68;;
59006;SDS011;44792;52.760;6.726;2022-11-20T14:44:20;17.48;;;10.25;;
59006;SDS011;44792;52.760;6.726;2022-11-20T14:46:51;19.42;;;11.23;;
59006;SDS011;44792;52.760;6.726;2022-11-20T14:49:18;20.15;;;10.65;;
59006;SDS011;44792;52.760;6.726;2022-11-20T14:51:44;16.48;;;9.45;;
59006;SDS011;44792;52.760;6.726;2022-11-20T14:54:12;18.05;;;10.55;;
59006;SDS011;44792;52.760;6.726;2022-11-20T14:56:59;19.00;;;10.73;;
59006;SDS011;44792;52.760;6.726;2022-11-20T14:59:27;18.42;;;10.40;;
59006;SDS011;44792;52.760;6.726;2022-11-20T15:01:59;20.23;;;11.20;;
59006;SDS011;44792;52.760;6.726;2022-11-20T15:04:27;21.98;;;12.05;;
59006;SDS011;44792;52.760;6.726;2022-11-20T15:06:56;21.35;;;11.40;;
59006;SDS011;44792;52.760;6.726;2022-11-20T15:09:23;21.42;;;10.55;;
59006;SDS011;44792;52.760;6.726;2022-11-20T15:11:56;24.38;;;12.10;;
59006;SDS011;44792;52.760;6.726;2022-11-20T15:14:25;19.08;;;11.20;;
59006;SDS011;44792;52.760;6.726;2022-11-20T15:16:52;20.20;;;12.02;;
59006;SDS011;44792;52.760;6.726;2022-11-20T15:19:22;19.55;;;9.88;;
59006;SDS011;44792;52.760;6.726;2022-11-20T15:21:49;22.75;;;11.18;;
59006;SDS011;44792;52.760;6.726;2022-11-20T15:24:15;23.88;;;11.20;;
59006;SDS011;44792;52.760;6.726;2022-11-20T15:26:41;19.45;;;10.38;;
59006;SDS011;44792;52.760;6.726;2022-11-20T15:29:11;19.10;;;10.60;;
59006;SDS011;44792;52.760;6.726;2022-11-20T15:31:38;20.42;;;10.80;;
59006;SDS011;44792;52.760;6.726;2022-11-20T15:34:13;21.13;;;10.93;;
59006;SDS011;44792;52.760;6.726;2022-11-20T15:36:40;18.33;;;10.93;;
59006;SDS011;44792;52.760;6.726;2022-11-20T15:39:06;22.00;;;11.43;;
59006;SDS011;44792;52.760;6.726;2022-11-20T15:41:33;22.65;;;11.48;;
59006;SDS011;44792;52.760;6.726;2022-11-20T15:43:59;22.63;;;11.10;;
59006;SDS011;44792;52.760;6.726;2022-11-20T15:46:26;18.42;;;10.65;;
59006;SDS011;44792;52.760;6.726;2022-11-20T15:48:54;22.25;;;11.35;;
59006;SDS011;44792;52.760;6.726;2022-11-20T15:51:24;24.17;;;11.50;;
59006;SDS011;44792;52.760;6.726;2022-11-20T15:53:54;20.52;;;10.43;;
59006;SDS011;44792;52.760;6.726;2022-11-20T15:56:20;20.23;;;10.57;;
59006;SDS011;44792;52.760;6.726;2022-11-20T15:58:46;18.50;;;11.50;;
59006;SDS011;44792;52.760;6.726;2022-11-20T16:01:12;22.88;;;12.07;;
59006;SDS011;44792;52.760;6.726;2022-11-20T16:03:40;21.40;;;11.10;;
59006;SDS011;44792;52.760;6.726;2022-11-20T16:06:06;19.20;;;11.38;;